Time;durP1;ratioP1;P1;durP2;ratioP2;P2;SDS_P1;SDS_P2;PMS_P1;PMS_P2;Temp;Humidity;BMP_temperature;BMP_pressure;BME280_temperature;BME280_humidity;BME280_pressure;Samples;Min_cycle;Max_cycle;Signal;HPM_P1;HPM_P2
2022/12/29 00:01:30;;;;;;;1.40;1.40;;;;;;;9.77;86.66;99910.94;5114832;28;20272;-70
2022/12/29 00:03:57;;;;;;;1.53;1.53;;;;;;;9.77;85.73;99912.75;5115834;28;20615;-70
2022/12/29 00:06:23;;;;;;;1.10;1.10;;;;;;;9.85;85.57;99896.09;5115712;28;20220;-70
2022/12/29 00:08:50;;;;;;;1.93;1.53;;;;;;;9.84;85.79;99887.22;5116286;28;20277;-70
2022/12/29 00:11:20;;;;;;;1.20;1.20;;;;;;;9.84;86.06;99891.69;5115734;28;20186;-70
2022/12/29 00:16:34;;;;;;;1.50;1.50;;;;;;;9.83;86.53;99888.16;5115523;28;20291;-70
2022/12/29 00:19:00;;;;;;;1.43;1.43;;;;;;;9.76;87.04;99871.78;5115502;28;20200;-70
2022/12/29 00:35:33;;;;;;;1.67;1.67;;;;;;;9.63;89.18;99871.09;5115313;28;20242;-70
2022/12/29 00:46:19;;;;;;;1.93;1.93;;;;;;;9.50;89.97;99849.00;5115257;28;20292;-70
2022/12/29 00:51:31;;;;;;;1.50;1.50;;;;;;;9.54;89.82;99851.31;5115257;28;20180;-69
2022/12/29 00:53:57;;;;;;;2.33;2.33;;;;;;;9.52;89.59;99845.22;5115118;28;20280;-69
2022/12/29 00:56:23;;;;;;;1.47;1.47;;;;;;;9.60;89.83;99841.97;5096492;28;20315;-70
2022/12/29 00:58:50;;;;;;;1.60;1.60;;;;;;;9.55;89.54;99847.69;5096571;28;20624;-70
2022/12/29 01:01:16;;;;;;;1.60;1.60;;;;;;;9.61;89.39;99842.81;5115056;28;20185;-69
2022/12/29 01:03:44;;;;;;;2.13;1.60;;;;;;;9.62;89.45;99837.31;5096441;28;20185;-69
2022/12/29 01:06:11;;;;;;;1.43;1.43;;;;;;;9.60;89.71;99831.25;5114609;28;20197;-69
2022/12/29 01:08:37;;;;;;;1.60;1.60;;;;;;;9.57;89.96;99839.50;5115194;28;20177;-69
2022/12/29 01:11:07;;;;;;;1.43;1.43;;;;;;;9.65;90.07;99842.44;5096304;28;20185;-69
2022/12/29 01:13:34;;;;;;;1.47;1.47;;;;;;;9.62;90.62;99839.13;5114728;28;20269;-69
2022/12/29 01:16:01;;;;;;;1.50;1.50;;;;;;;9.61;90.27;99832.94;5096066;28;20675;-70
2022/12/29 01:18:28;;;;;;;1.63;1.63;;;;;;;9.61;90.56;99838.28;5096179;28;20565;-69
2022/12/29 01:21:02;;;;;;;1.30;1.30;;;;;;;9.59;90.90;99835.75;5114279;28;20197;-69
2022/12/29 01:23:29;;;;;;;1.30;1.30;;;;;;;9.58;90.58;99833.22;5096121;28;20674;-69
2022/12/29 01:25:55;;;;;;;1.53;1.53;;;;;;;9.68;90.03;99825.28;5095961;28;20225;-70
2022/12/29 01:28:23;;;;;;;1.30;1.30;;;;;;;9.68;89.93;99823.44;5096746;28;20199;-70
2022/12/29 01:30:51;;;;;;;1.73;1.73;;;;;;;9.76;89.38;99829.00;5114461;28;20192;-70
2022/12/29 01:33:18;;;;;;;7.53;1.60;;;;;;;9.79;89.17;99828.75;5114363;28;20276;-69
2022/12/29 01:35:44;;;;;;;1.70;1.70;;;;;;;9.82;89.06;99824.97;5114414;28;20541;-70
2022/12/29 01:38:11;;;;;;;1.20;1.20;;;;;;;9.90;87.90;99825.19;5096154;28;20189;-70
2022/12/29 01:40:43;;;;;;;1.13;1.13;;;;;;;9.97;87.76;99818.34;5095857;28;20234;-70
2022/12/29 01:43:13;;;;;;;1.43;1.43;;;;;;;10.03;87.11;99819.63;5114050;28;20636;-70
2022/12/29 01:45:50;;;;;;;1.30;1.30;;;;;;;10.00;87.21;99809.19;5095746;28;20240;-70
2022/12/29 01:48:18;;;;;;;0.97;0.97;;;;;;;10.05;86.55;99803.47;5114553;28;20253;-70
2022/12/29 01:50:53;;;;;;;1.13;1.00;;;;;;;10.00;86.77;99799.34;5114495;28;20216;-70
2022/12/29 01:53:28;;;;;;;1.30;1.30;;;;;;;10.00;86.67;99796.66;5095706;28;20184;-69
2022/12/29 01:55:59;;;;;;;1.10;1.10;;;;;;;10.12;86.31;99793.94;5114272;28;20262;-70
2022/12/29 01:58:32;;;;;;;1.00;1.00;;;;;;;10.14;85.84;99790.16;5095522;28;20188;-70
2022/12/29 02:00:59;;;;;;;1.03;1.03;;;;;;;10.19;85.86;99800.47;5096454;28;20185;-70
2022/12/29 02:03:28;;;;;;;1.33;1.33;;;;;;;10.26;84.98;99798.97;5114031;28;20189;-70
2022/12/29 02:06:03;;;;;;;0.90;0.90;;;;;;;10.27;85.23;99803.34;5095603;28;20205;-70
2022/12/29 02:08:30;;;;;;;0.90;0.90;;;;;;;10.30;84.50;99791.56;5113968;28;20652;-70
2022/12/29 02:10:59;;;;;;;1.17;1.17;;;;;;;10.35;84.45;99794.69;5095400;28;20193;-70
2022/12/29 02:13:26;;;;;;;1.10;1.10;;;;;;;10.40;84.17;99787.13;5113621;28;20675;-70
2022/12/29 02:16:14;;;;;;;1.10;1.10;;;;;;;10.45;83.26;99800.09;5113656;28;20303;-70
2022/12/29 02:19:12;;;;;;;0.90;0.90;;;;;;;10.49;83.29;99798.88;5095406;28;20702;-70
2022/12/29 02:21:56;;;;;;;1.03;1.03;;;;;;;10.58;82.14;99800.72;5095296;28;20197;-70
2022/12/29 02:24:47;;;;;;;0.80;0.80;;;;;;;10.67;81.86;99799.09;5097984;28;20204;-70
2022/12/29 02:27:22;;;;;;;0.80;0.80;;;;;;;10.71;80.61;99787.13;5099420;28;20648;-70
2022/12/29 02:30:15;;;;;;;0.90;0.90;;;;;;;10.73;80.13;99788.69;5099447;28;20192;-69
2022/12/29 02:32:52;;;;;;;1.30;1.30;;;;;;;10.71;80.29;99790.66;5117649;28;20189;-69
2022/12/29 02:35:35;;;;;;;1.23;1.23;;;;;;;10.84;79.80;99793.94;5099105;28;20203;-70
2022/12/29 02:38:10;;;;;;;1.50;1.50;;;;;;;10.89;79.13;99798.03;5099289;28;20558;-70
2022/12/29 02:40:58;;;;;;;1.40;1.33;;;;;;;10.94;78.88;99788.63;5117773;28;20196;-70
2022/12/29 02:43:39;;;;;;;1.03;1.00;;;;;;;10.97;77.94;99796.38;5099151;28;20686;-70
2022/12/29 02:46:23;;;;;;;1.13;1.13;;;;;;;10.98;77.80;99782.00;5099024;28;20213;-70
2022/12/29 02:49:27;;;;;;;1.00;1.00;;;;;;;10.95;78.75;99776.91;5117646;28;20196;-70
2022/12/29 02:52:04;;;;;;;2.43;1.03;;;;;;;10.93;77.69;99773.53;5099070;28;20670;-70
2022/12/29 02:54:41;;;;;;;1.00;1.00;;;;;;;10.90;78.17;99759.56;5099008;28;20188;-69
2022/12/29 02:57:22;;;;;;;0.90;0.90;;;;;;;10.97;77.52;99756.19;5098834;28;20224;-70
2022/12/29 02:59:57;;;;;;;1.13;1.13;;;;;;;10.96;77.60;99770.56;5117421;28;20211;-70
2022/12/29 03:02:29;;;;;;;2.43;1.30;;;;;;;11.03;75.83;99763.69;5098873;28;20213;-69
2022/12/29 03:05:05;;;;;;;0.80;0.80;;;;;;;11.02;76.87;99759.31;5098756;28;20193;-69
2022/12/29 03:08:11;;;;;;;1.00;1.00;;;;;;;11.10;76.20;99765.81;5082157;28;20215;-69
2022/12/29 03:10:50;;;;;;;1.17;1.17;;;;;;;11.14;75.95;99769.94;5058243;28;20217;-69
2022/12/29 03:16:36;;;;;;;1.00;1.00;;;;;;;11.04;76.83;99759.19;5098428;28;20228;-70
2022/12/29 03:19:28;;;;;;;1.17;1.17;;;;;;;11.04;76.27;99754.66;5116756;28;20181;-70
2022/12/29 03:25:25;;;;;;;1.00;1.00;;;;;;;11.12;76.44;99745.94;5099255;28;20189;-70
2022/12/29 03:27:57;;;;;;;1.13;1.13;;;;;;;11.10;76.59;99744.38;5116626;28;20226;-70
2022/12/29 03:30:27;;;;;;;0.93;0.93;;;;;;;11.07;76.60;99740.16;5098254;28;20185;-70
2022/12/29 03:32:56;;;;;;;0.90;0.90;;;;;;;11.13;76.14;99731.53;5098288;28;20667;-70
2022/12/29 03:35:29;;;;;;;1.43;1.33;;;;;;;11.12;76.24;99745.09;5098969;28;20542;-70
2022/12/29 03:38:11;;;;;;;1.00;1.00;;;;;;;11.14;75.76;99727.06;5098689;28;20525;-69
2022/12/29 03:40:41;;;;;;;1.43;1.30;;;;;;;11.12;75.79;99724.50;5098141;28;20184;-69
2022/12/29 03:43:11;;;;;;;1.30;1.30;;;;;;;11.17;75.70;99730.28;5098006;28;20177;-69
2022/12/29 03:45:38;;;;;;;1.50;1.20;;;;;;;11.17;74.84;99716.03;5097912;28;20217;-69
2022/12/29 03:48:04;;;;;;;1.37;1.37;;;;;;;11.23;75.19;99712.81;5097903;28;20195;-69
2022/12/29 03:50:31;;;;;;;1.53;1.53;;;;;;;11.23;75.63;99715.50;5098184;28;20272;-69
2022/12/29 03:52:58;;;;;;;2.20;1.27;;;;;;;11.22;75.43;99725.34;5116047;28;20674;-69
2022/12/29 03:55:26;;;;;;;1.10;1.10;;;;;;;11.22;75.38;99722.66;5098262;28;20659;-70
2022/12/29 03:57:52;;;;;;;1.40;1.30;;;;;;;11.18;76.12;99733.81;5097679;28;20221;-69
2022/12/29 04:00:29;;;;;;;1.30;1.30;;;;;;;11.14;75.87;99727.91;5098051;28;20196;-69
2022/12/29 04:02:56;;;;;;;1.10;1.10;;;;;;;11.13;76.43;99715.47;5097614;28;20193;-69
2022/12/29 04:05:23;;;;;;;0.97;0.97;;;;;;;11.07;76.39;99702.63;5115811;28;20212;-70
2022/12/29 04:07:52;;;;;;;1.40;1.10;;;;;;;11.02;77.10;99708.41;5097543;28;20280;-69
2022/12/29 04:10:19;;;;;;;1.53;1.13;;;;;;;11.02;76.67;99692.34;5097498;28;20288;-69
2022/12/29 04:12:47;;;;;;;1.20;1.20;;;;;;;10.99;77.13;99689.06;5097481;28;20220;-69
2022/12/29 04:15:14;;;;;;;1.00;1.00;;;;;;;11.06;76.41;99680.38;5098480;28;20304;-69
2022/12/29 04:17:41;;;;;;;2.00;0.90;;;;;;;11.09;77.10;99684.59;5115521;28;20261;-70
2022/12/29 04:23:02;;;;;;;1.30;1.30;;;;;;;11.12;76.34;99670.91;5097866;28;20195;-69
2022/12/29 04:25:31;;;;;;;4.33;1.10;;;;;;;11.10;76.75;99683.59;5097116;28;20741;-70
2022/12/29 04:27:58;;;;;;;2.10;1.30;;;;;;;11.11;76.20;99687.09;5115398;28;20173;-70
2022/12/29 04:30:44;;;;;;;1.00;1.00;;;;;;;11.16;76.45;99680.38;5115954;28;20531;-70
2022/12/29 04:33:20;;;;;;;1.17;1.17;;;;;;;11.17;76.31;99663.28;5097043;28;20731;-70
2022/12/29 04:35:47;;;;;;;0.80;0.80;;;;;;;11.22;76.19;99671.75;5096835;28;20209;-70
2022/12/29 04:38:14;;;;;;;1.23;1.23;;;;;;;11.23;75.47;99668.09;5096979;28;20196;-70
2022/12/29 04:40:42;;;;;;;1.70;1.20;;;;;;;11.31;74.54;99670.06;5097179;28;20276;-69
2022/12/29 04:43:10;;;;;;;1.60;0.90;;;;;;;11.35;75.04;99682.22;5096901;28;20246;-69
2022/12/29 04:46:01;;;;;;;1.03;1.03;;;;;;;11.38;74.84;99663.16;5096605;28;20218;-70
2022/12/29 04:48:35;;;;;;;1.30;1.30;;;;;;;11.38;74.79;99663.16;5097069;28;20659;-69
2022/12/29 04:51:13;;;;;;;1.10;1.10;;;;;;;11.39;74.02;99664.84;5115303;28;20173;-69
2022/12/29 04:53:40;;;;;;;1.30;1.30;;;;;;;11.49;74.09;99665.69;5096634;28;20191;-69
2022/12/29 04:56:07;;;;;;;1.20;1.10;;;;;;;11.52;73.93;99682.47;5096436;28;20205;-69
2022/12/29 04:58:33;;;;;;;2.87;1.33;;;;;;;11.60;73.00;99677.25;5096541;28;20203;-70
2022/12/29 05:01:00;;;;;;;1.20;1.20;;;;;;;11.68;72.17;99691.66;5079742;28;20196;-69
2022/12/29 05:03:28;;;;;;;1.20;1.20;;;;;;;11.69;72.21;99685.28;5096407;28;20563;-70
2022/12/29 05:05:56;;;;;;;1.20;1.20;;;;;;;11.67;73.01;99687.25;5096299;28;20205;-70
2022/12/29 05:08:23;;;;;;;1.63;1.57;;;;;;;11.69;71.99;99692.50;5096400;28;20193;-70
2022/12/29 05:10:56;;;;;;;1.10;1.10;;;;;;;11.74;72.11;99697.44;5096913;28;20189;-70
2022/12/29 05:13:22;;;;;;;1.60;1.60;;;;;;;11.82;71.05;99687.66;5096348;28;20185;-70
2022/12/29 05:15:53;;;;;;;0.90;0.90;;;;;;;11.88;70.90;99684.44;5096622;28;20217;-70
2022/12/29 05:18:21;;;;;;;2.10;1.47;;;;;;;11.84;71.63;99703.63;5096753;28;20193;-70
2022/12/29 05:20:49;;;;;;;1.70;1.60;;;;;;;11.84;71.30;99701.78;5096184;28;20204;-70
2022/12/29 05:23:17;;;;;;;3.50;1.37;;;;;;;11.90;70.90;99701.25;5096276;28;20276;-70
2022/12/29 05:25:48;;;;;;;1.27;1.27;;;;;;;11.93;70.85;99704.63;5096057;28;20233;-70
2022/12/29 05:28:17;;;;;;;1.10;1.10;;;;;;;11.84;71.71;99708.97;5096249;28;20189;-70
2022/12/29 05:30:50;;;;;;;1.33;1.33;;;;;;;11.88;70.77;99705.06;5095999;28;20277;-69
2022/12/29 05:33:18;;;;;;;3.60;1.47;;;;;;;11.88;69.51;99716.63;5095923;28;20715;-69
2022/12/29 05:35:47;;;;;;;1.70;1.30;;;;;;;11.69;71.34;99727.34;5095757;28;20209;-69
2022/12/29 05:38:13;;;;;;;2.10;2.00;;;;;;;11.10;75.76;99742.53;5095853;28;20215;-69
2022/12/29 05:40:40;;;;;;;3.10;3.10;;;;;;;10.74;77.42;99744.00;5095792;28;20200;-69
2022/12/29 05:43:19;;;;;;;2.77;2.67;;;;;;;10.67;77.93;99724.94;5096083;28;20272;-69
2022/12/29 05:46:06;;;;;;;2.70;2.70;;;;;;;10.66;76.99;99735.81;5096285;28;20270;-69
2022/12/29 05:48:45;;;;;;;1.67;1.67;;;;;;;10.76;74.82;99726.81;5095732;28;20185;-69
2022/12/29 05:51:22;;;;;;;11.13;1.90;;;;;;;11.06;72.35;99723.22;5096579;28;20189;-69
2022/12/29 05:53:51;;;;;;;1.57;1.20;;;;;;;11.28;71.13;99735.53;5096747;28;20230;-69
2022/12/29 05:56:17;;;;;;;1.13;1.13;;;;;;;11.28;70.46;99732.00;5095366;28;20224;-69
2022/12/29 05:58:50;;;;;;;1.73;1.63;;;;;;;11.38;67.80;99745.41;5096189;28;20592;-69
2022/12/29 06:01:16;;;;;;;0.90;0.90;;;;;;;11.38;68.11;99746.25;5096679;28;20200;-69
2022/12/29 06:03:44;;;;;;;1.20;1.20;;;;;;;11.39;67.44;99737.22;5095516;28;20189;-69
2022/12/29 06:06:14;;;;;;;1.53;1.20;;;;;;;11.35;68.22;99759.06;5095963;28;20209;-69
2022/12/29 06:08:41;;;;;;;2.33;1.10;;;;;;;11.35;68.52;99759.94;5095490;28;20191;-69
2022/12/29 06:11:09;;;;;;;1.00;1.00;;;;;;;11.30;68.11;99770.25;5095443;28;20193;-69
2022/12/29 06:13:37;;;;;;;3.30;1.23;;;;;;;11.26;69.16;99769.66;5095621;28;20195;-69
2022/12/29 06:16:04;;;;;;;1.43;1.43;;;;;;;11.20;68.93;99780.91;5096052;28;20266;-69
2022/12/29 06:18:31;;;;;;;1.20;1.20;;;;;;;11.11;69.64;99772.88;5096190;28;20601;-69
2022/12/29 06:21:03;;;;;;;4.17;1.17;;;;;;;11.11;70.97;99794.28;5095255;28;20204;-69
2022/12/29 06:23:29;;;;;;;2.30;1.20;;;;;;;11.03;71.15;99793.16;5095418;28;20212;-69
2022/12/29 06:25:57;;;;;;;1.43;1.43;;;;;;;11.03;71.62;99784.28;5095252;28;20216;-69
2022/12/29 06:28:23;;;;;;;11.87;1.37;;;;;;;11.00;72.11;99795.28;5095263;28;20242;-69
2022/12/29 06:30:50;;;;;;;2.87;1.17;;;;;;;10.94;72.64;99795.78;5095294;28;20655;-69
2022/12/29 06:33:17;;;;;;;1.60;1.60;;;;;;;10.92;73.19;99792.41;5095499;28;20650;-69
2022/12/29 06:35:45;;;;;;;2.20;1.20;;;;;;;10.93;73.24;99799.47;5113431;28;20201;-69
2022/12/29 06:38:13;;;;;;;1.83;1.10;;;;;;;10.91;74.08;99804.97;5095326;28;20273;-69
2022/12/29 06:40:41;;;;;;;1.60;1.50;;;;;;;10.91;73.73;99807.63;5113475;28;20185;-69
2022/12/29 06:43:19;;;;;;;1.20;1.17;;;;;;;10.92;73.96;99817.38;5113971;28;20169;-69
2022/12/29 06:46:07;;;;;;;3.80;1.77;;;;;;;10.88;74.95;99815.09;5095062;28;20266;-69
2022/12/29 06:48:33;;;;;;;2.37;1.40;;;;;;;10.92;74.56;99817.38;5113305;28;20647;-69
2022/12/29 06:51:00;;;;;;;1.60;1.60;;;;;;;10.96;74.39;99831.34;5113304;28;20189;-69
2022/12/29 06:53:26;;;;;;;1.73;1.73;;;;;;;10.93;73.80;99826.25;5113318;28;20267;-69
2022/12/29 06:55:53;;;;;;;1.87;1.87;;;;;;;10.96;73.50;99810.75;5113238;28;20581;-68
2022/12/29 06:58:19;;;;;;;1.57;1.57;;;;;;;10.91;73.55;99812.16;5113475;28;20189;-69
2022/12/29 07:00:46;;;;;;;3.13;1.77;;;;;;;10.94;73.41;99817.22;5113198;28;20194;-69
2022/12/29 07:03:12;;;;;;;1.77;1.77;;;;;;;10.92;72.69;99827.22;5113261;28;20181;-69
2022/12/29 07:05:39;;;;;;;4.00;1.67;;;;;;;10.93;73.22;99820.91;5113081;28;20212;-69
2022/12/29 07:08:05;;;;;;;1.27;1.27;;;;;;;10.89;73.27;99819.47;5113268;28;20277;-69
2022/12/29 07:10:32;;;;;;;3.80;1.60;;;;;;;10.89;73.22;99820.31;5115715;28;20221;-68
2022/12/29 07:12:58;;;;;;;2.63;1.60;;;;;;;10.98;72.56;99811.47;5116845;28;20242;-68
2022/12/29 07:15:25;;;;;;;2.37;1.20;;;;;;;11.00;72.94;99816.69;5117633;28;20236;-69
2022/12/29 07:17:51;;;;;;;1.67;1.63;;;;;;;10.98;72.96;99811.47;5116656;28;20205;-68
2022/12/29 07:20:18;;;;;;;1.77;1.77;;;;;;;10.96;72.77;99807.22;5116965;28;20217;-68
2022/12/29 07:22:52;;;;;;;1.90;1.70;;;;;;;11.06;72.37;99816.13;5116771;28;20177;-68
2022/12/29 07:25:18;;;;;;;2.07;1.97;;;;;;;11.03;72.01;99809.22;5116710;28;20234;-68
2022/12/29 07:27:44;;;;;;;1.73;1.73;;;;;;;10.99;72.50;99818.53;5116862;28;20268;-68
2022/12/29 07:30:11;;;;;;;2.30;2.27;;;;;;;11.08;72.27;99830.25;5116574;28;20272;-68
2022/12/29 07:32:38;;;;;;;4.13;2.10;;;;;;;11.06;72.19;99834.91;5116497;28;20677;-68
2022/12/29 07:35:04;;;;;;;2.33;2.17;;;;;;;11.04;72.08;99832.38;5116479;28;20268;-68
2022/12/29 07:37:31;;;;;;;3.13;2.93;;;;;;;11.03;71.94;99845.91;5116188;28;20296;-69
2022/12/29 07:39:58;;;;;;;2.00;1.90;;;;;;;11.06;72.11;99854.53;5116371;28;20292;-69
2022/12/29 07:42:24;;;;;;;1.80;1.80;;;;;;;11.05;71.37;99843.94;5116519;28;20618;-69
2022/12/29 07:44:51;;;;;;;2.20;2.00;;;;;;;11.04;72.31;99859.16;5097716;28;20201;-69
2022/12/29 07:47:25;;;;;;;2.33;2.23;;;;;;;10.99;72.09;99866.78;5116316;28;20209;-69
2022/12/29 07:49:52;;;;;;;5.10;2.13;;;;;;;11.01;70.69;99869.28;5116839;28;20582;-69
2022/12/29 07:52:18;;;;;;;2.00;1.97;;;;;;;10.98;70.27;99869.56;5115909;28;20181;-68
2022/12/29 07:54:45;;;;;;;6.00;2.23;;;;;;;11.07;68.84;99874.13;5116453;28;20272;-69
2022/12/29 07:57:11;;;;;;;3.70;1.87;;;;;;;11.07;69.07;99874.97;5115821;28;20211;-69
2022/12/29 07:59:37;;;;;;;1.50;1.50;;;;;;;11.17;68.95;99876.84;5115778;28;20596;-69
2022/12/29 08:02:04;;;;;;;1.63;1.53;;;;;;;11.22;68.30;99878.13;5115951;28;20185;-69
2022/12/29 08:04:30;;;;;;;2.10;1.83;;;;;;;11.22;68.08;99888.84;5115647;28;20193;-69
2022/12/29 08:06:57;;;;;;;2.30;1.70;;;;;;;11.19;67.24;99874.88;5115809;28;20205;-69
2022/12/29 08:09:23;;;;;;;4.70;1.20;;;;;;;11.20;67.90;99882.75;5116053;28;20185;-69
2022/12/29 08:11:50;;;;;;;2.73;2.33;;;;;;;11.19;67.60;99888.28;5116022;28;20223;-68
2022/12/29 08:14:16;;;;;;;2.23;2.20;;;;;;;11.11;68.48;99888.09;5115924;28;20191;-68
2022/12/29 08:16:43;;;;;;;2.23;2.03;;;;;;;11.12;67.28;99882.59;5115607;28;20291;-69
2022/12/29 08:19:13;;;;;;;3.03;1.60;;;;;;;11.10;67.28;99883.72;5116049;28;20662;-69
2022/12/29 08:21:40;;;;;;;2.57;1.30;;;;;;;11.10;67.23;99900.66;5114500;28;20268;-68
2022/12/29 08:24:07;;;;;;;1.73;1.73;;;;;;;11.09;67.98;99903.47;5115830;28;20185;-68
2022/12/29 08:26:34;;;;;;;3.03;1.53;;;;;;;11.13;67.44;99904.88;5115356;28;20292;-68
2022/12/29 08:29:00;;;;;;;1.80;1.70;;;;;;;11.13;67.31;99915.59;5115299;28;20209;-68
2022/12/29 08:31:27;;;;;;;3.03;1.80;;;;;;;11.11;67.40;99909.53;5115566;28;20593;-68
2022/12/29 08:33:53;;;;;;;1.90;1.90;;;;;;;11.09;67.80;99911.53;5115483;28;20281;-68
2022/12/29 08:36:20;;;;;;;1.77;1.60;;;;;;;11.02;68.50;99916.56;5115660;28;20247;-68
2022/12/29 08:38:46;;;;;;;2.50;1.97;;;;;;;10.98;67.80;99920.47;5115431;28;20207;-69
2022/12/29 08:41:13;;;;;;;10.10;1.73;;;;;;;10.89;67.20;99910.53;5115393;28;20591;-68
2022/12/29 08:43:39;;;;;;;1.93;1.83;;;;;;;10.83;69.08;99917.28;5115819;28;20265;-68
2022/12/29 08:46:05;;;;;;;2.10;1.73;;;;;;;10.88;67.90;99912.38;5115528;28;20215;-67
2022/12/29 08:48:32;;;;;;;3.13;1.87;;;;;;;10.86;68.72;99909.00;5115316;28;20173;-68
2022/12/29 08:50:59;;;;;;;1.83;1.50;;;;;;;10.84;69.09;99917.16;5115229;28;20268;-68
2022/12/29 08:53:25;;;;;;;3.40;2.03;;;;;;;10.81;68.26;99927.28;5097116;28;20271;-68
2022/12/29 08:55:57;;;;;;;1.60;1.50;;;;;;;10.84;68.01;99922.50;5114741;28;20581;-68
2022/12/29 08:58:33;;;;;;;2.23;2.10;;;;;;;10.91;68.28;99924.66;5096805;28;20209;-68
2022/12/29 09:01:00;;;;;;;6.23;2.23;;;;;;;10.94;68.17;99919.91;5096462;28;20224;-68
2022/12/29 09:03:26;;;;;;;6.00;2.23;;;;;;;10.92;69.02;99918.31;5096648;28;20193;-68
2022/12/29 09:06:15;;;;;;;5.00;1.87;;;;;;;10.97;69.05;99926.81;5114402;28;20227;-68
2022/12/29 09:08:42;;;;;;;6.80;1.80;;;;;;;11.00;69.52;99935.44;5114595;28;20260;-68
2022/12/29 09:11:20;;;;;;;6.37;2.00;;;;;;;11.04;68.98;99920.78;5114573;28;20264;-68
2022/12/29 09:13:47;;;;;;;1.90;1.70;;;;;;;11.16;67.01;99924.25;5114955;28;20175;-68
2022/12/29 09:16:15;;;;;;;5.07;2.10;;;;;;;11.20;66.38;99931.00;5114423;28;20291;-68
2022/12/29 09:18:41;;;;;;;3.17;1.77;;;;;;;11.15;66.17;99941.28;5114856;28;20201;-68
2022/12/29 09:21:10;;;;;;;2.00;1.60;;;;;;;11.20;66.00;99938.22;5114602;28;20197;-68
2022/12/29 09:23:37;;;;;;;7.10;1.70;;;;;;;11.25;66.19;99950.25;5114576;28;20196;-68
2022/12/29 09:26:04;;;;;;;3.03;1.50;;;;;;;11.28;65.79;99946.44;5114239;28;20746;-68
2022/12/29 09:28:31;;;;;;;6.77;1.83;;;;;;;11.24;66.00;99940.50;5114288;28;20184;-68
2022/12/29 09:30:57;;;;;;;2.17;1.53;;;;;;;11.21;65.58;99946.13;5114479;28;20185;-68
2022/12/29 09:33:24;;;;;;;1.53;1.53;;;;;;;11.19;66.58;99950.75;5113950;28;20208;-68
2022/12/29 09:35:54;;;;;;;2.93;2.10;;;;;;;11.17;66.31;99952.72;5114336;28;20574;-69
2022/12/29 09:38:21;;;;;;;3.03;2.07;;;;;;;11.08;67.03;99945.47;5114558;28;20213;-68
2022/12/29 09:40:55;;;;;;;5.83;2.17;;;;;;;11.08;66.96;99942.81;5114313;28;20263;-68
2022/12/29 09:43:57;;;;;;;3.97;2.17;;;;;;;11.03;66.40;99942.34;5114237;28;20208;-68
2022/12/29 09:46:31;;;;;;;3.57;1.40;;;;;;;11.10;67.10;99946.19;5092184;28;20730;-69
2022/12/29 09:49:28;;;;;;;3.67;1.90;;;;;;;11.09;66.51;99959.75;5114186;28;20195;-68
2022/12/29 09:52:00;;;;;;;4.00;2.03;;;;;;;11.03;67.33;99945.03;5114763;28;20197;-68
2022/12/29 09:54:45;;;;;;;4.93;1.23;;;;;;;11.06;67.09;99939.41;5114971;28;20196;-68
2022/12/29 09:57:26;;;;;;;1.33;1.27;;;;;;;11.01;66.89;99937.16;5113985;28;20209;-68
2022/12/29 09:59:59;;;;;;;7.50;2.00;;;;;;;11.02;67.32;99949.56;5113814;28;20261;-66
2022/12/29 10:02:42;;;;;;;1.80;1.70;;;;;;;10.98;67.02;99952.63;5114112;28;20173;-66
2022/12/29 10:05:27;;;;;;;2.17;1.40;;;;;;;10.95;67.17;99952.91;5113969;28;20222;-66
2022/12/29 10:08:14;;;;;;;5.60;1.50;;;;;;;11.01;66.33;99947.88;5113731;28;20179;-67
2022/12/29 10:10:53;;;;;;;5.53;1.67;;;;;;;11.02;66.64;99965.63;5114002;28;20192;-66
2022/12/29 10:13:35;;;;;;;3.57;1.90;;;;;;;10.99;65.03;99940.91;5114271;28;20617;-66
2022/12/29 10:16:31;;;;;;;4.37;1.80;;;;;;;11.03;64.33;99951.22;5113892;28;20290;-67
2022/12/29 10:19:16;;;;;;;1.50;1.50;;;;;;;11.10;64.86;99956.06;5113818;28;20658;-67
2022/12/29 10:22:08;;;;;;;3.00;1.57;;;;;;;11.12;64.02;99954.13;5113634;28;20192;-67
2022/12/29 10:24:38;;;;;;;1.20;1.13;;;;;;;11.14;64.01;99953.00;5113906;28;20197;-67
2022/12/29 10:27:11;;;;;;;1.67;1.57;;;;;;;11.21;63.11;99958.69;5113368;28;20296;-67
2022/12/29 10:29:45;;;;;;;1.73;1.70;;;;;;;11.23;63.41;99962.09;5113766;28;20178;-67
2022/12/29 10:32:37;;;;;;;4.50;1.80;;;;;;;11.18;63.66;99946.41;5113665;28;20658;-67
2022/12/29 10:35:13;;;;;;;1.20;1.20;;;;;;;11.14;63.64;99954.84;5113614;28;20652;-67
2022/12/29 10:37:48;;;;;;;5.73;2.00;;;;;;;11.14;63.88;99971.75;5113236;28;20223;-67
2022/12/29 10:40:34;;;;;;;2.67;1.30;;;;;;;11.13;63.14;99978.09;5113724;28;20181;-67
2022/12/29 10:43:05;;;;;;;1.47;1.37;;;;;;;11.15;62.83;99969.94;5113405;28;20172;-67
2022/12/29 10:45:33;;;;;;;4.80;1.60;;;;;;;11.10;63.33;99969.47;5116589;28;20181;-67
2022/12/29 10:48:19;;;;;;;1.83;1.73;;;;;;;11.08;63.23;99966.91;5099119;28;20185;-67
2022/12/29 10:50:48;;;;;;;4.13;1.93;;;;;;;11.07;62.02;99973.28;5117928;28;20252;-67
2022/12/29 10:53:25;;;;;;;3.50;2.10;;;;;;;11.02;63.19;99976.34;5117219;28;20181;-67
2022/12/29 10:55:52;;;;;;;1.87;1.77;;;;;;;11.04;62.67;99989.63;5117442;28;20196;-67
2022/12/29 10:58:19;;;;;;;2.47;1.93;;;;;;;11.06;61.42;99976.91;5117121;28;20196;-67
2022/12/29 11:00:52;;;;;;;4.73;2.40;;;;;;;11.04;63.23;99984.25;5117077;28;20724;-67
2022/12/29 11:04:00;;;;;;;2.10;1.60;;;;;;;11.07;62.51;99990.19;5117648;28;20282;-67
2022/12/29 11:06:29;;;;;;;5.20;1.83;;;;;;;11.09;63.35;100013.34;5069945;28;20231;-67
2022/12/29 11:09:00;;;;;;;5.93;1.70;;;;;;;11.08;62.25;100004.44;5116928;28;20189;-67
2022/12/29 11:11:33;;;;;;;2.30;1.53;;;;;;;11.06;62.79;99988.50;5117194;28;20192;-67
2022/12/29 11:14:11;;;;;;;2.23;2.13;;;;;;;10.98;62.23;99990.97;5117085;28;20173;-67
2022/12/29 11:16:38;;;;;;;4.27;2.60;;;;;;;11.02;63.16;99988.91;5116831;28;20694;-66
2022/12/29 11:19:05;;;;;;;4.63;2.07;;;;;;;11.02;63.08;99992.44;5116689;28;20201;-66
2022/12/29 11:21:33;;;;;;;4.60;2.23;;;;;;;11.04;63.24;99998.50;5116761;28;20197;-66
2022/12/29 11:24:02;;;;;;;4.87;1.80;;;;;;;11.04;63.18;100006.53;5116501;28;20663;-66
2022/12/29 11:26:30;;;;;;;4.50;2.13;;;;;;;11.02;62.92;99995.09;5116478;28;20262;-67
2022/12/29 11:29:25;;;;;;;4.87;1.90;;;;;;;10.95;62.83;99991.25;5117051;28;20200;-67
2022/12/29 11:31:58;;;;;;;4.53;1.70;;;;;;;10.91;62.99;100013.06;5116757;28;20280;-67
2022/12/29 11:34:26;;;;;;;9.47;1.93;;;;;;;10.90;63.24;100008.69;5116744;28;20169;-66
2022/12/29 11:37:11;;;;;;;2.07;1.97;;;;;;;10.91;62.96;100021.09;5098072;28;20217;-67
2022/12/29 11:39:56;;;;;;;2.20;1.97;;;;;;;10.99;63.17;100015.94;5116545;28;20246;-67
2022/12/29 11:42:37;;;;;;;4.80;2.20;;;;;;;11.03;63.15;100020.91;5116647;28;20272;-67
2022/12/29 11:45:07;;;;;;;5.47;2.27;;;;;;;10.99;62.32;100026.66;5116967;28;20220;-67
2022/12/29 11:47:36;;;;;;;5.23;2.10;;;;;;;11.03;62.87;100038.81;5116135;28;20197;-67
2022/12/29 11:50:07;;;;;;;1.73;1.67;;;;;;;11.10;62.42;100025.75;5116166;28;20272;-67
2022/12/29 11:52:36;;;;;;;7.73;2.20;;;;;;;11.11;62.67;100031.00;5116690;28;20207;-67
2022/12/29 11:55:05;;;;;;;2.53;1.90;;;;;;;11.11;62.24;100030.13;5116271;28;20551;-67
2022/12/29 11:57:34;;;;;;;1.57;1.47;;;;;;;11.03;63.02;100052.22;5115886;28;20211;-67
2022/12/29 12:00:14;;;;;;;3.23;2.07;;;;;;;10.96;62.43;100049.19;5115926;28;20185;-67
2022/12/29 12:02:45;;;;;;;12.60;1.77;;;;;;;10.90;62.41;100051.56;5116418;28;20530;-67
2022/12/29 12:05:18;;;;;;;3.77;2.33;;;;;;;10.89;62.12;100058.72;5116426;28;20174;-67
2022/12/29 12:08:17;;;;;;;4.93;1.77;;;;;;;10.94;62.42;100056.53;5116429;28;20260;-67
2022/12/29 12:10:56;;;;;;;2.67;1.70;;;;;;;11.01;62.18;100046.13;5116113;28;20177;-67
2022/12/29 12:13:29;;;;;;;1.60;1.60;;;;;;;10.99;62.48;100037.38;5097486;28;20243;-67
2022/12/29 12:16:18;;;;;;;6.37;1.87;;;;;;;10.88;63.44;100051.69;5097421;28;20225;-67
2022/12/29 12:18:53;;;;;;;6.10;2.30;;;;;;;10.96;63.17;100048.34;5097325;28;20216;-67
2022/12/29 12:21:38;;;;;;;5.70;1.60;;;;;;;10.95;62.36;100057.38;5115456;28;20221;-67
2022/12/29 12:24:51;;;;;;;2.33;2.13;;;;;;;10.96;62.39;100049.19;5115468;28;20238;-67
2022/12/29 12:27:23;;;;;;;1.80;1.63;;;;;;;10.95;63.04;100063.59;5115401;28;20369;-67
2022/12/29 12:30:00;;;;;;;4.27;1.77;;;;;;;10.85;63.16;100060.84;5115979;28;20227;-67
2022/12/29 12:32:34;;;;;;;3.93;1.90;;;;;;;10.80;63.47;100048.81;5115497;28;20646;-67
2022/12/29 12:35:01;;;;;;;1.83;1.73;;;;;;;10.89;62.92;100074.81;5115241;28;20242;-67